Time;durP1;ratioP1;P1;durP2;ratioP2;P2;SDS_P1;SDS_P2;PMS_P1;PMS_P2;Temp;Humidity;BMP_temperature;BMP_pressure;BME280_temperature;BME280_humidity;BME280_pressure;Samples;Min_cycle;Max_cycle;Signal;HPM_P1;HPM_P2
2023/01/06 00:01:30;;;;;;;38.83;15.73;;;10.00;99.90;;;;;;5042332;28;20457;-63
2023/01/06 00:03:57;;;;;;;44.65;16.75;;;10.00;99.90;;;;;;5047802;28;20123;-63
2023/01/06 00:06:28;;;;;;;39.97;15.98;;;10.00;99.90;;;;;;5047472;28;20041;-63
2023/01/06 00:08:57;;;;;;;;;;;10.00;99.90;;;;;;5046994;28;20041;-63
2023/01/06 00:11:24;;;;;;;42.20;15.18;;;10.00;99.90;;;;;;5034257;28;20398;-63
2023/01/06 00:13:50;;;;;;;36.33;14.23;;;10.00;99.90;;;;;;5032495;28;20530;-63
2023/01/06 00:16:18;;;;;;;45.10;14.90;;;10.00;99.90;;;;;;5042636;28;20053;-63
2023/01/06 00:18:45;;;;;;;32.53;12.25;;;10.00;99.90;;;;;;5040108;28;20041;-63
2023/01/06 00:21:13;;;;;;;32.25;14.00;;;10.00;99.90;;;;;;5046167;28;20099;-63
2023/01/06 00:23:39;;;;;;;33.78;11.57;;;10.00;99.90;;;;;;5047565;28;20052;-63
2023/01/06 00:26:06;;;;;;;34.40;12.10;;;10.00;99.90;;;;;;5047242;28;20509;-63
2023/01/06 00:28:33;;;;;;;28.40;9.45;;;10.00;99.90;;;;;;5046925;28;20053;-63
2023/01/06 00:31:11;;;;;;;32.40;11.52;;;10.10;99.90;;;;;;5028495;28;20037;-63
2023/01/06 00:33:37;;;;;;;27.35;10.45;;;10.10;99.90;;;;;;5036675;28;20511;-63
2023/01/06 00:36:04;;;;;;;30.15;9.60;;;10.10;99.90;;;;;;5026892;28;20129;-63
2023/01/06 00:38:30;;;;;;;38.83;9.65;;;10.10;99.90;;;;;;5046559;28;20407;-63
2023/01/06 00:40:56;;;;;;;33.88;9.77;;;10.10;99.90;;;;;;5047784;28;20502;-63
2023/01/06 00:43:22;;;;;;;25.30;8.75;;;10.10;99.90;;;;;;5045181;28;20132;-63
2023/01/06 00:45:48;;;;;;;27.08;8.30;;;10.10;99.90;;;;;;5038266;28;20041;-63
2023/01/06 00:48:14;;;;;;;37.80;9.10;;;10.00;99.90;;;;;;5046578;28;20037;-63
2023/01/06 00:50:39;;;;;;;41.95;9.10;;;10.00;99.90;;;;;;5047228;28;20052;-63
2023/01/06 00:53:05;;;;;;;27.27;7.88;;;10.10;99.90;;;;;;5041406;28;20041;-63
2023/01/06 00:55:31;;;;;;;31.92;7.82;;;10.10;99.90;;;;;;5025330;28;20050;-63
2023/01/06 00:57:58;;;;;;;35.78;8.30;;;10.10;99.90;;;;;;5040606;28;20079;-63
2023/01/06 01:00:24;;;;;;;34.78;8.00;;;10.10;99.90;;;;;;5046033;28;20095;-63
2023/01/06 01:02:49;;;;;;;42.47;8.88;;;10.10;99.90;;;;;;5026905;28;20049;-63
2023/01/06 01:05:16;;;;;;;40.50;8.85;;;10.10;99.90;;;;;;5030168;28;20115;-63
2023/01/06 01:07:42;;;;;;;35.40;9.10;;;10.10;99.90;;;;;;5036205;28;20560;-63
2023/01/06 01:10:08;;;;;;;30.05;7.97;;;10.10;99.90;;;;;;5046991;28;20037;-63
2023/01/06 01:12:34;;;;;;;31.17;7.57;;;10.10;99.90;;;;;;5028080;28;20045;-62
2023/01/06 01:15:00;;;;;;;32.60;8.18;;;10.10;99.90;;;;;;5029230;28;20051;-63
2023/01/06 01:17:29;;;;;;;28.90;7.13;;;10.10;99.90;;;;;;5028073;28;20037;-63
2023/01/06 01:19:56;;;;;;;30.17;7.55;;;10.10;99.90;;;;;;5043291;28;20069;-63
2023/01/06 01:22:23;;;;;;;46.05;9.82;;;10.10;99.90;;;;;;5047709;28;20081;-63
2023/01/06 01:24:50;;;;;;;31.92;7.60;;;10.10;99.90;;;;;;5018589;28;20084;-63
2023/01/06 01:27:16;;;;;;;34.55;8.23;;;10.10;99.90;;;;;;5053648;28;20067;-63
2023/01/06 01:29:41;;;;;;;34.92;9.05;;;10.10;99.90;;;;;;5015776;28;20047;-63
2023/01/06 01:32:08;;;;;;;20.77;4.60;;;10.10;99.90;;;;;;5052288;28;20045;-63
2023/01/06 01:34:34;;;;;;;31.73;7.95;;;10.10;99.90;;;;;;5049517;28;20045;-63
2023/01/06 01:37:00;;;;;;;32.65;8.45;;;10.10;99.90;;;;;;5035272;28;20057;-63
2023/01/06 01:39:27;;;;;;;27.63;7.30;;;10.20;99.90;;;;;;5052672;28;20390;-63
2023/01/06 01:41:54;;;;;;;27.60;5.95;;;10.20;99.90;;;;;;5052490;28;20380;-62
2023/01/06 01:44:55;;;;;;;30.42;5.55;;;10.20;99.90;;;;;;5034895;28;20049;-63
2023/01/06 01:47:20;;;;;;;;;;;10.10;99.90;;;;;;5035415;28;20491;-63
2023/01/06 01:49:50;;;;;;;26.83;5.90;;;10.10;99.90;;;;;;5035255;28;19966;-63
2023/01/06 01:52:17;;;;;;;24.45;5.93;;;10.20;99.90;;;;;;5042595;28;20041;-63
2023/01/06 01:54:44;;;;;;;22.63;5.85;;;10.20;99.90;;;;;;5052818;28;20155;-63
2023/01/06 01:57:15;;;;;;;27.95;6.68;;;10.20;99.90;;;;;;5050192;28;21626;-63
2023/01/06 01:59:43;;;;;;;19.77;5.80;;;10.20;99.90;;;;;;5032745;28;20410;-63
2023/01/06 02:02:09;;;;;;;20.00;5.40;;;10.20;99.90;;;;;;5049131;28;20040;-63
2023/01/06 02:04:39;;;;;;;15.10;4.82;;;10.20;99.90;;;;;;5030785;28;20041;-63
2023/01/06 02:07:05;;;;;;;26.75;5.47;;;10.20;99.90;;;;;;5053647;28;20049;-64
2023/01/06 02:09:34;;;;;;;13.00;4.25;;;10.10;99.90;;;;;;5052053;28;20568;-62
2023/01/06 02:12:00;;;;;;;23.52;5.65;;;10.10;99.90;;;;;;5052018;28;20057;-63
2023/01/06 02:14:28;;;;;;;19.80;4.88;;;10.10;99.90;;;;;;5050231;28;20044;-63
2023/01/06 02:17:18;;;;;;;14.13;4.35;;;10.10;99.90;;;;;;5052878;28;20040;-63
2023/01/06 02:20:02;;;;;;;14.70;3.47;;;10.10;99.90;;;;;;5038629;28;20098;-63
2023/01/06 02:22:42;;;;;;;13.85;3.90;;;10.10;99.90;;;;;;5033697;28;20060;-63
2023/01/06 02:25:38;;;;;;;15.00;4.60;;;10.10;99.90;;;;;;5034766;28;20049;-63
2023/01/06 02:28:33;;;;;;;19.83;4.35;;;10.10;99.90;;;;;;5052541;28;20049;-63
2023/01/06 02:31:31;;;;;;;13.68;4.35;;;10.10;99.90;;;;;;5050866;28;20040;-63
2023/01/06 02:34:13;;;;;;;12.52;4.82;;;10.10;99.90;;;;;;5023853;28;20057;-62
2023/01/06 02:37:04;;;;;;;16.63;4.70;;;10.10;99.90;;;;;;5048489;28;20066;-63
2023/01/06 02:39:55;;;;;;;10.70;4.20;;;10.20;99.90;;;;;;5048806;28;20044;-63
2023/01/06 02:42:29;;;;;;;13.90;2.92;;;10.10;99.90;;;;;;5049084;28;20049;-63
2023/01/06 02:45:12;;;;;;;22.15;4.57;;;10.20;99.90;;;;;;5046219;28;20491;-63
2023/01/06 02:47:55;;;;;;;14.00;4.20;;;10.10;99.90;;;;;;5049068;28;20059;-63
2023/01/06 02:50:32;;;;;;;10.35;3.92;;;10.20;99.90;;;;;;5031599;28;20126;-63
2023/01/06 02:53:39;;;;;;;21.92;4.78;;;10.20;99.90;;;;;;5048456;28;20084;-63
2023/01/06 02:56:06;;;;;;;9.85;3.53;;;10.20;99.90;;;;;;5048990;28;20060;-64
2023/01/06 02:58:45;;;;;;;14.00;4.90;;;10.20;99.90;;;;;;5043838;28;20057;-63
2023/01/06 03:01:22;;;;;;;16.50;3.97;;;10.10;99.90;;;;;;5039729;28;20103;-63
2023/01/06 03:03:50;;;;;;;9.50;4.28;;;10.10;99.90;;;;;;5029866;28;20041;-63
2023/01/06 03:06:25;;;;;;;11.02;4.18;;;10.10;99.90;;;;;;5048815;28;20084;-63
2023/01/06 03:08:54;;;;;;;8.73;4.60;;;10.10;99.90;;;;;;5048297;28;20045;-63
2023/01/06 03:11:23;;;;;;;5.90;3.42;;;10.10;99.90;;;;;;5048746;28;20049;-62
2023/01/06 03:14:09;;;;;;;13.75;4.35;;;10.20;99.90;;;;;;5048253;28;20048;-63
2023/01/06 03:16:36;;;;;;;6.72;2.90;;;10.10;99.90;;;;;;5023310;28;20061;-62
2023/01/06 03:19:02;;;;;;;11.60;4.30;;;10.10;99.90;;;;;;5048614;28;20471;-64
2023/01/06 03:21:34;;;;;;;17.83;5.03;;;10.10;99.90;;;;;;5047188;28;20084;-63
2023/01/06 03:24:02;;;;;;;13.25;3.72;;;10.10;99.90;;;;;;5047725;28;20044;-63
2023/01/06 03:26:28;;;;;;;16.25;3.33;;;10.10;99.90;;;;;;5048006;28;20049;-63
2023/01/06 03:28:54;;;;;;;5.45;2.08;;;10.10;99.90;;;;;;5047805;28;20075;-63
2023/01/06 03:31:30;;;;;;;16.08;3.65;;;10.10;99.90;;;;;;5025038;28;20454;-63
2023/01/06 03:34:12;;;;;;;14.40;3.17;;;10.10;99.90;;;;;;5039860;28;20061;-63
2023/01/06 03:36:41;;;;;;;11.35;3.33;;;10.10;99.90;;;;;;5046385;28;20051;-63
2023/01/06 03:39:31;;;;;;;10.32;2.08;;;10.10;99.90;;;;;;5046864;28;20076;-63
2023/01/06 03:45:05;;;;;;;11.52;3.58;;;10.10;99.90;;;;;;5046249;28;20495;-63
2023/01/06 03:47:59;;;;;;;11.00;3.13;;;10.10;99.90;;;;;;5045520;28;20072;-63
2023/01/06 03:50:33;;;;;;;8.93;2.97;;;10.10;99.90;;;;;;5036410;28;20068;-63
2023/01/06 03:53:09;;;;;;;10.88;3.45;;;10.10;99.90;;;;;;5047323;28;20043;-63
2023/01/06 03:55:37;;;;;;;11.55;3.50;;;10.10;99.90;;;;;;5048380;28;20045;-63
2023/01/06 03:58:07;;;;;;;6.70;2.90;;;10.10;99.90;;;;;;5045502;28;20047;-63
2023/01/06 04:00:36;;;;;;;12.73;3.88;;;10.10;99.90;;;;;;5024289;28;20103;-63
2023/01/06 04:03:07;;;;;;;9.60;3.47;;;10.20;99.90;;;;;;5046992;28;20195;-63
2023/01/06 04:05:33;;;;;;;12.48;3.80;;;10.10;99.90;;;;;;5047376;28;20029;-63
2023/01/06 04:07:59;;;;;;;8.45;3.63;;;10.20;99.90;;;;;;5046698;28;20037;-63
2023/01/06 04:10:24;;;;;;;7.05;2.75;;;10.10;99.90;;;;;;5046868;28;20045;-62
2023/01/06 04:12:51;;;;;;;5.05;2.25;;;10.10;99.90;;;;;;5029809;28;20087;-63
2023/01/06 04:15:19;;;;;;;4.78;2.97;;;10.10;99.90;;;;;;5047528;28;20037;-63
2023/01/06 04:17:46;;;;;;;13.50;2.78;;;10.10;99.90;;;;;;5047234;28;20072;-63
2023/01/06 04:20:17;;;;;;;9.00;2.65;;;10.10;99.90;;;;;;5046637;28;20076;-63
2023/01/06 04:22:44;;;;;;;7.55;4.30;;;10.10;99.90;;;;;;5029225;28;20055;-63
2023/01/06 04:25:11;;;;;;;4.45;2.63;;;10.20;99.90;;;;;;5029770;28;20140;-63
2023/01/06 04:27:37;;;;;;;6.93;2.85;;;10.10;99.90;;;;;;5047025;28;20098;-62
2023/01/06 04:30:04;;;;;;;5.80;3.53;;;10.10;99.90;;;;;;5046645;28;20045;-63
2023/01/06 04:32:29;;;;;;;9.05;3.55;;;10.20;99.90;;;;;;5045739;28;20068;-63
2023/01/06 04:34:55;;;;;;;5.13;2.95;;;10.20;99.90;;;;;;5032846;28;20095;-63
2023/01/06 04:37:21;;;;;;;5.95;3.30;;;10.20;99.90;;;;;;5047272;28;20075;-63
2023/01/06 04:39:48;;;;;;;14.25;3.42;;;10.20;99.90;;;;;;5046191;28;20037;-63
2023/01/06 04:42:13;;;;;;;7.38;3.05;;;10.20;99.90;;;;;;5047065;28;20057;-63
2023/01/06 04:44:41;;;;;;;5.05;3.17;;;10.20;99.90;;;;;;5028955;28;20045;-63
2023/01/06 04:47:08;;;;;;;7.95;3.13;;;10.20;99.90;;;;;;5047156;28;20330;-63
2023/01/06 04:49:33;;;;;;;7.32;3.15;;;10.20;99.90;;;;;;5046849;28;20187;-62
2023/01/06 04:52:00;;;;;;;6.35;2.60;;;10.20;99.90;;;;;;5034481;28;20526;-63
2023/01/06 04:54:25;;;;;;;5.20;2.17;;;10.20;99.90;;;;;;5047016;28;20041;-63
2023/01/06 04:56:51;;;;;;;5.00;2.35;;;10.20;99.90;;;;;;5045844;28;20126;-63
2023/01/06 04:59:17;;;;;;;7.45;2.65;;;10.20;99.90;;;;;;5046944;28;20041;-63
2023/01/06 05:01:43;;;;;;;3.78;1.52;;;10.20;99.90;;;;;;5037840;28;20046;-63
2023/01/06 05:04:18;;;;;;;3.55;2.10;;;10.20;99.90;;;;;;5047274;28;20402;-63
2023/01/06 05:06:44;;;;;;;3.47;2.20;;;10.20;99.90;;;;;;5028558;28;20095;-63
2023/01/06 05:09:10;;;;;;;8.05;2.65;;;10.30;99.90;;;;;;5046771;28;20056;-63
2023/01/06 05:11:36;;;;;;;5.13;2.20;;;10.20;99.90;;;;;;5041490;28;20033;-63
2023/01/06 05:14:02;;;;;;;8.30;2.33;;;10.20;99.90;;;;;;5041523;28;20045;-62
2023/01/06 05:16:31;;;;;;;11.23;2.28;;;10.20;99.90;;;;;;5046686;28;20037;-63
2023/01/06 05:18:58;;;;;;;2.63;1.50;;;10.20;99.90;;;;;;5027975;28;20130;-62
2023/01/06 05:21:26;;;;;;;3.17;1.33;;;10.20;99.90;;;;;;5046407;28;20431;-63
2023/01/06 05:23:52;;;;;;;5.40;1.95;;;10.20;99.90;;;;;;5046202;28;20044;-63
2023/01/06 05:26:25;;;;;;;3.92;1.15;;;10.20;99.90;;;;;;5029077;28;20049;-62
2023/01/06 05:28:51;;;;;;;3.72;1.98;;;10.20;99.90;;;;;;5046301;28;20423;-63
2023/01/06 05:31:16;;;;;;;6.15;2.47;;;10.20;99.90;;;;;;5044850;28;20075;-63
2023/01/06 05:33:43;;;;;;;6.90;1.90;;;10.20;99.90;;;;;;5026753;28;20053;-63
2023/01/06 05:36:14;;;;;;;1.67;1.17;;;10.20;99.90;;;;;;5027611;28;20048;-63
2023/01/06 05:38:40;;;;;;;7.10;2.30;;;10.20;99.90;;;;;;5028717;28;20052;-63
2023/01/06 05:41:07;;;;;;;13.75;3.47;;;10.20;99.90;;;;;;5045753;28;20045;-63
2023/01/06 05:43:34;;;;;;;3.38;1.88;;;10.20;99.90;;;;;;5046134;28;20106;-63
2023/01/06 05:46:05;;;;;;;3.47;2.08;;;10.20;99.90;;;;;;5028107;28;20045;-63
2023/01/06 05:48:31;;;;;;;2.80;2.10;;;10.20;99.90;;;;;;5046748;28;20037;-63
2023/01/06 05:51:05;;;;;;;4.63;1.98;;;10.20;99.90;;;;;;5046124;28;20048;-63
2023/01/06 05:53:35;;;;;;;2.97;1.77;;;10.20;99.90;;;;;;5045367;28;20051;-62
2023/01/06 05:56:03;;;;;;;5.85;2.53;;;10.20;99.90;;;;;;5045970;28;20083;-63
2023/01/06 05:58:31;;;;;;;2.92;2.42;;;10.20;99.90;;;;;;5045791;28;20045;-63
2023/01/06 06:00:59;;;;;;;3.53;2.88;;;10.30;99.90;;;;;;5026623;28;20543;-62
2023/01/06 06:03:25;;;;;;;3.55;2.80;;;10.30;99.90;;;;;;5039874;28;20064;-62
2023/01/06 06:05:51;;;;;;;9.25;3.40;;;10.30;99.90;;;;;;5046424;28;20051;-62
2023/01/06 06:08:16;;;;;;;5.53;2.97;;;10.30;99.90;;;;;;5045689;28;20041;-62
2023/01/06 06:10:42;;;;;;;3.67;3.03;;;10.30;99.90;;;;;;5049162;28;20053;-63
2023/01/06 06:13:08;;;;;;;8.80;3.33;;;10.30;99.90;;;;;;5049504;28;20037;-63
2023/01/06 06:15:34;;;;;;;3.22;2.17;;;10.20;99.90;;;;;;5049347;28;20041;-63
2023/01/06 06:18:01;;;;;;;5.70;2.35;;;10.20;99.90;;;;;;5050028;28;20094;-62
2023/01/06 06:20:27;;;;;;;4.40;3.15;;;10.20;99.90;;;;;;5049647;28;20136;-63
2023/01/06 06:22:54;;;;;;;5.82;3.35;;;10.20;99.90;;;;;;5031869;28;20119;-62
2023/01/06 06:25:20;;;;;;;5.35;2.55;;;10.20;99.90;;;;;;5030816;28;20491;-63
2023/01/06 06:27:46;;;;;;;7.15;3.15;;;10.20;99.90;;;;;;5049584;28;20044;-62
2023/01/06 06:30:12;;;;;;;5.53;2.78;;;10.10;99.90;;;;;;5049641;28;20049;-62
2023/01/06 06:32:37;;;;;;;5.63;3.55;;;10.10;99.90;;;;;;5047872;28;20040;-62
2023/01/06 06:35:03;;;;;;;4.22;2.40;;;10.10;99.90;;;;;;5024822;28;20390;-63
2023/01/06 06:37:29;;;;;;;2.25;1.73;;;10.00;99.90;;;;;;5043946;28;20040;-63
2023/01/06 06:39:55;;;;;;;3.95;3.08;;;10.00;99.90;;;;;;5020859;28;20138;-62
2023/01/06 06:42:20;;;;;;;5.22;2.38;;;10.00;99.90;;;;;;5014181;28;20099;-63
2023/01/06 06:44:46;;;;;;;4.22;3.05;;;10.00;99.90;;;;;;5041414;28;20045;-63
2023/01/06 06:47:13;;;;;;;4.43;2.35;;;10.00;99.90;;;;;;5048833;28;20478;-62
2023/01/06 06:49:39;;;;;;;3.75;1.83;;;10.00;99.90;;;;;;5029510;28;20076;-63
2023/01/06 06:52:04;;;;;;;8.20;2.78;;;10.00;99.90;;;;;;5047710;28;20487;-63
2023/01/06 06:54:30;;;;;;;7.35;3.90;;;9.90;99.90;;;;;;5049349;28;20048;-62
2023/01/06 06:56:56;;;;;;;5.20;3.15;;;10.00;99.90;;;;;;5027777;28;20055;-62
2023/01/06 06:59:22;;;;;;;8.10;2.65;;;9.90;99.90;;;;;;5028932;28;20585;-62
2023/01/06 07:01:47;;;;;;;4.78;3.17;;;9.90;99.90;;;;;;5023116;28;20140;-63
2023/01/06 07:04:13;;;;;;;6.97;3.83;;;9.90;99.90;;;;;;5028667;28;20042;-63
2023/01/06 07:06:39;;;;;;;6.95;4.10;;;9.90;99.90;;;;;;5018088;28;20045;-63
2023/01/06 07:09:05;;;;;;;7.95;3.65;;;9.90;99.90;;;;;;5016522;28;20491;-63
2023/01/06 07:11:30;;;;;;;3.72;3.00;;;9.90;99.90;;;;;;5028694;28;20543;-63
2023/01/06 07:13:56;;;;;;;8.73;3.33;;;9.90;99.90;;;;;;5028809;28;20495;-63
2023/01/06 07:16:25;;;;;;;2.67;2.50;;;9.90;99.90;;;;;;5027062;28;20033;-62
2023/01/06 07:18:51;;;;;;;3.97;2.38;;;9.90;99.90;;;;;;5027765;28;20049;-62
2023/01/06 07:21:17;;;;;;;4.88;3.17;;;9.90;99.90;;;;;;5006614;28;20087;-62
2023/01/06 07:23:43;;;;;;;6.07;4.05;;;9.90;99.90;;;;;;5024180;28;20072;-62
2023/01/06 07:26:10;;;;;;;6.25;3.47;;;9.90;99.90;;;;;;5026192;28;20154;-62
2023/01/06 07:28:36;;;;;;;3.88;3.33;;;9.80;99.90;;;;;;5022275;28;20400;-62
2023/01/06 07:31:02;;;;;;;4.78;3.13;;;9.80;99.90;;;;;;5027054;28;20049;-62
2023/01/06 07:33:28;;;;;;;5.43;3.60;;;9.90;99.90;;;;;;5026673;28;20053;-62
2023/01/06 07:35:55;;;;;;;5.45;2.35;;;9.90;99.90;;;;;;5028754;28;20047;-62
2023/01/06 07:38:22;;;;;;;2.90;2.70;;;9.90;99.90;;;;;;5027618;28;20073;-62
2023/01/06 07:40:48;;;;;;;2.65;2.45;;;9.90;99.90;;;;;;5028847;28;20515;-62
2023/01/06 07:43:15;;;;;;;2.05;1.88;;;9.90;99.90;;;;;;5027944;28;20037;-63
2023/01/06 07:45:41;;;;;;;5.10;2.50;;;9.90;99.90;;;;;;5020046;28;20113;-62
2023/01/06 07:48:08;;;;;;;2.15;2.05;;;9.90;99.90;;;;;;5027786;28;20049;-62
2023/01/06 07:50:34;;;;;;;4.30;2.15;;;9.90;99.90;;;;;;5027673;28;20085;-63
2023/01/06 07:53:01;;;;;;;1.73;1.63;;;9.90;99.90;;;;;;5018040;28;20084;-63
2023/01/06 07:55:28;;;;;;;2.88;1.88;;;9.90;99.90;;;;;;5021005;28;20041;-63
2023/01/06 07:57:54;;;;;;;2.10;1.67;;;9.90;99.90;;;;;;5036324;28;20123;-62
2023/01/06 08:00:21;;;;;;;2.88;1.75;;;9.90;99.90;;;;;;5046849;28;20053;-63
2023/01/06 08:02:47;;;;;;;3.97;1.15;;;9.90;99.90;;;;;;5041562;28;20072;-62
2023/01/06 08:05:12;;;;;;;2.03;0.70;;;9.90;99.90;;;;;;5045401;28;20068;-62
2023/01/06 08:07:38;;;;;;;1.85;0.65;;;9.90;99.90;;;;;;5047396;28;20055;-63
2023/01/06 08:10:05;;;;;;;1.85;1.55;;;9.90;99.90;;;;;;5047210;28;20044;-62
2023/01/06 08:12:30;;;;;;;1.35;0.57;;;10.00;99.90;;;;;;5044262;28;20087;-62
2023/01/06 08:14:56;;;;;;;6.57;0.70;;;10.00;99.90;;;;;;5047189;28;20072;-62
2023/01/06 08:17:22;;;;;;;2.33;0.60;;;10.00;99.90;;;;;;5045156;28;20515;-63
2023/01/06 08:19:48;;;;;;;1.98;0.65;;;10.00;99.90;;;;;;5047017;28;20130;-63
2023/01/06 08:22:14;;;;;;;1.55;0.57;;;9.90;99.90;;;;;;5046624;28;20511;-63
2023/01/06 08:24:39;;;;;;;4.05;0.55;;;9.90;99.90;;;;;;5046147;28;20079;-63
2023/01/06 08:27:05;;;;;;;3.85;1.13;;;9.80;99.90;;;;;;5046368;28;20033;-62
2023/01/06 08:29:31;;;;;;;5.60;1.55;;;9.70;99.90;;;;;;5045753;28;20041;-62
2023/01/06 08:31:57;;;;;;;3.25;1.13;;;9.70;99.90;;;;;;5043480;28;20494;-63
2023/01/06 08:34:23;;;;;;;7.90;1.38;;;9.60;99.90;;;;;;5044212;28;20098;-62
2023/01/06 08:36:48;;;;;;;5.25;1.33;;;9.50;99.90;;;;;;5012490;28;20479;-62
2023/01/06 08:39:14;;;;;;;5.55;1.23;;;9.50;99.90;;;;;;5028590;28;20116;-62
2023/01/06 08:41:41;;;;;;;3.80;0.85;;;9.50;99.90;;;;;;5044310;28;20450;-62
2023/01/06 08:44:07;;;;;;;3.80;0.85;;;9.50;99.90;;;;;;5028544;28;20029;-62
2023/01/06 08:46:33;;;;;;;5.35;1.10;;;9.40;99.90;;;;;;5027485;28;20510;-62
2023/01/06 08:48:59;;;;;;;1.73;0.45;;;9.40;99.90;;;;;;5039329;28;20067;-63
2023/01/06 08:51:27;;;;;;;2.42;0.55;;;9.30;99.90;;;;;;5044525;28;20159;-63
2023/01/06 08:53:53;;;;;;;4.07;0.70;;;9.20;99.90;;;;;;5041792;28;20041;-63
2023/01/06 08:56:25;;;;;;;0.95;0.28;;;9.20;99.90;;;;;;5045793;28;20116;-63
2023/01/06 08:59:02;;;;;;;1.95;0.60;;;9.10;99.90;;;;;;5033717;28;20037;-63
2023/01/06 09:01:31;;;;;;;1.05;0.20;;;9.00;99.90;;;;;;5042242;28;20045;-63
2023/01/06 09:03:58;;;;;;;4.45;0.88;;;9.00;99.90;;;;;;5033305;28;20064;-63
2023/01/06 09:06:25;;;;;;;1.67;0.40;;;8.90;99.90;;;;;;5045235;28;20057;-62
2023/01/06 09:08:51;;;;;;;1.98;0.52;;;8.90;99.90;;;;;;5042759;28;20086;-63
2023/01/06 09:11:17;;;;;;;3.22;0.80;;;8.90;99.90;;;;;;5046522;28;20098;-63
2023/01/06 09:13:43;;;;;;;8.07;0.63;;;8.90;99.90;;;;;;5044193;28;20433;-63
2023/01/06 09:16:10;;;;;;;1.13;0.50;;;8.90;99.90;;;;;;5046170;28;20044;-63
2023/01/06 09:18:37;;;;;;;4.18;0.63;;;8.90;99.90;;;;;;5042962;28;20037;-63
2023/01/06 09:21:04;;;;;;;5.15;1.00;;;8.90;99.90;;;;;;5046241;28;20581;-63
2023/01/06 09:23:31;;;;;;;7.53;0.80;;;8.80;99.90;;;;;;5027520;28;20053;-63
2023/01/06 09:25:57;;;;;;;8.10;0.77;;;8.80;99.90;;;;;;5046398;28;20116;-63
2023/01/06 09:28:24;;;;;;;3.20;0.57;;;8.80;99.90;;;;;;5024287;28;20571;-63
2023/01/06 09:30:51;;;;;;;6.50;0.85;;;8.80;99.90;;;;;;5044884;28;20035;-63
2023/01/06 09:33:17;;;;;;;3.85;0.73;;;8.90;99.90;;;;;;5041997;28;20107;-63
2023/01/06 09:35:45;;;;;;;2.78;0.30;;;8.90;99.90;;;;;;5045656;28;20053;-63
2023/01/06 09:38:11;;;;;;;2.53;0.50;;;8.90;99.90;;;;;;5040486;28;20053;-62
2023/01/06 09:41:08;;;;;;;5.13;0.70;;;8.90;99.90;;;;;;5045788;28;20090;-63
2023/01/06 09:43:38;;;;;;;6.07;1.02;;;8.90;99.90;;;;;;5033384;28;20083;-62
2023/01/06 09:46:05;;;;;;;;;;;8.90;99.90;;;;;;5046807;28;20127;-63
2023/01/06 09:48:42;;;;;;;12.40;1.20;;;8.90;99.90;;;;;;5028559;28;20298;-63
2023/01/06 09:51:16;;;;;;;2.08;0.45;;;9.00;99.90;;;;;;5045980;28;20045;-63
2023/01/06 09:53:46;;;;;;;2.40;0.73;;;9.00;99.90;;;;;;5045680;28;20033;-63
2023/01/06 09:56:22;;;;;;;2.78;0.30;;;9.00;99.90;;;;;;5030982;28;20449;-63
2023/01/06 09:59:07;;;;;;;2.90;0.75;;;9.00;99.90;;;;;;5048100;28;20132;-63
2023/01/06 10:01:41;;;;;;;2.13;0.80;;;9.00;99.90;;;;;;5044262;28;20057;-63
2023/01/06 10:04:16;;;;;;;4.90;0.70;;;9.10;99.90;;;;;;5028206;28;20059;-63
2023/01/06 10:06:50;;;;;;;7.60;0.80;;;9.10;99.90;;;;;;5030758;28;20487;-63
2023/01/06 10:09:19;;;;;;;1.05;0.20;;;9.10;99.90;;;;;;5047324;28;20040;-63
2023/01/06 10:11:51;;;;;;;2.33;0.40;;;9.10;99.90;;;;;;5015391;28;20037;-63
2023/01/06 10:14:48;;;;;;;18.13;1.55;;;9.10;99.90;;;;;;5044474;28;20041;-63
2023/01/06 10:17:44;;;;;;;10.57;1.35;;;9.20;99.90;;;;;;5043797;28;20113;-63
2023/01/06 10:20:36;;;;;;;15.05;1.30;;;9.20;99.90;;;;;;5039922;28;20049;-63
2023/01/06 10:23:20;;;;;;;7.88;0.40;;;9.30;99.90;;;;;;5049893;28;20459;-63
2023/01/06 10:25:49;;;;;;;2.75;0.30;;;9.30;99.90;;;;;;5030223;28;20422;-63
2023/01/06 10:28:15;;;;;;;4.15;0.70;;;9.30;99.90;;;;;;5018129;28;20040;-63
2023/01/06 10:30:50;;;;;;;7.78;1.40;;;9.30;99.90;;;;;;5048983;28;20053;-64
2023/01/06 10:33:57;;;;;;;12.10;1.70;;;9.30;99.90;;;;;;5047982;28;20055;-63
2023/01/06 10:36:31;;;;;;;6.90;0.93;;;9.20;99.90;;;;;;5040957;28;20507;-63
2023/01/06 10:38:59;;;;;;;11.13;1.13;;;9.20;99.90;;;;;;5028915;28;20115;-63
2023/01/06 10:41:49;;;;;;;7.43;0.88;;;9.20;99.90;;;;;;5030420;28;20045;-63
2023/01/06 10:44:16;;;;;;;15.77;1.17;;;9.20;99.90;;;;;;5048463;28;20569;-63
2023/01/06 10:46:44;;;;;;;13.10;1.30;;;9.20;99.90;;;;;;5047788;28;20450;-63
2023/01/06 10:49:21;;;;;;;5.30;0.63;;;9.20;99.90;;;;;;5028491;28;20057;-63
2023/01/06 10:52:01;;;;;;;22.70;1.40;;;9.30;99.90;;;;;;5048287;28;20380;-63
2023/01/06 10:54:32;;;;;;;13.13;0.95;;;9.30;99.90;;;;;;5048522;28;20450;-63
2023/01/06 10:57:02;;;;;;;20.38;1.70;;;9.30;99.90;;;;;;5044134;28;20294;-63
2023/01/06 10:59:29;;;;;;;5.25;0.88;;;9.30;99.90;;;;;;5030029;28;20046;-63
2023/01/06 11:01:56;;;;;;;15.95;1.42;;;9.40;99.90;;;;;;5046935;28;20041;-63
2023/01/06 11:04:25;;;;;;;11.68;0.90;;;9.40;99.90;;;;;;5030860;28;20037;-63
2023/01/06 11:06:56;;;;;;;5.78;1.02;;;9.50;99.90;;;;;;5046538;28;20445;-63
2023/01/06 11:09:38;;;;;;;3.80;0.80;;;9.40;99.90;;;;;;5044418;28;20475;-63
2023/01/06 11:12:18;;;;;;;8.93;1.15;;;9.40;99.90;;;;;;5048833;28;20049;-63
2023/01/06 11:14:56;;;;;;;8.98;1.42;;;9.40;99.90;;;;;;5038770;28;20078;-63
2023/01/06 11:17:23;;;;;;;12.63;1.67;;;9.40;99.90;;;;;;5029606;28;20077;-63
2023/01/06 11:20:07;;;;;;;12.82;1.65;;;9.40;99.90;;;;;;5047595;28;20116;-63
2023/01/06 11:22:36;;;;;;;6.53;1.63;;;9.50;99.90;;;;;;5047591;28;20052;-63
2023/01/06 11:25:21;;;;;;;9.75;0.65;;;9.40;99.90;;;;;;5044765;28;20413;-63
2023/01/06 11:28:16;;;;;;;9.18;0.95;;;9.50;99.90;;;;;;5040821;28;20553;-63
2023/01/06 11:30:54;;;;;;;1.50;0.45;;;9.60;99.90;;;;;;5045439;28;20033;-63
2023/01/06 11:33:23;;;;;;;3.05;0.70;;;9.60;99.90;;;;;;5045001;28;20047;-64
2023/01/06 11:35:50;;;;;;;4.18;0.30;;;9.60;99.90;;;;;;5046431;28;20049;-64
2023/01/06 11:38:18;;;;;;;12.55;1.02;;;9.50;99.90;;;;;;5012719;28;20053;-64
2023/01/06 11:40:47;;;;;;;4.40;0.43;;;9.50;99.90;;;;;;5045945;28;20041;-63
2023/01/06 11:43:42;;;;;;;0.85;0.17;;;9.50;99.90;;;;;;5037964;28;20056;-64
2023/01/06 11:46:12;;;;;;;2.85;0.70;;;9.50;99.90;;;;;;5043995;28;20053;-63
2023/01/06 11:48:48;;;;;;;2.65;0.43;;;9.50;99.90;;;;;;5027599;28;20048;-63
2023/01/06 11:51:30;;;;;;;8.45;0.93;;;9.50;99.90;;;;;;5046436;28;20096;-64
2023/01/06 11:53:56;;;;;;;0.85;0.25;;;9.50;99.90;;;;;;5046291;28;20044;-63
2023/01/06 11:56:23;;;;;;;20.92;2.25;;;9.50;99.90;;;;;;5046522;28;20128;-63
2023/01/06 11:59:01;;;;;;;12.80;1.60;;;9.50;99.90;;;;;;5042873;28;20110;-63
2023/01/06 12:01:52;;;;;;;5.70;0.82;;;9.50;99.90;;;;;;5046089;28;20499;-63
2023/01/06 12:04:49;;;;;;;3.88;0.82;;;9.50;99.90;;;;;;5046342;28;20084;-63
2023/01/06 12:07:34;;;;;;;4.55;1.15;;;9.50;99.90;;;;;;5044549;28;20051;-63
2023/01/06 12:10:13;;;;;;;10.52;0.98;;;9.50;99.90;;;;;;5024343;28;20207;-63
2023/01/06 12:12:38;;;;;;;9.20;1.23;;;9.50;99.90;;;;;;5037271;28;20041;-63
2023/01/06 12:15:13;;;;;;;8.77;1.42;;;9.60;99.90;;;;;;5043073;28;20033;-63
2023/01/06 12:17:45;;;;;;;22.75;2.33;;;9.60;99.90;;;;;;5047190;28;20487;-63
2023/01/06 12:20:25;;;;;;;14.38;1.88;;;9.60;99.90;;;;;;5028925;28;20043;-63
2023/01/06 12:23:06;;;;;;;;;;;9.60;99.90;;;;;;5042075;28;20104;-63
2023/01/06 12:25:34;;;;;;;;;;;9.70;99.90;;;;;;5013006;28;19927;-63
2023/01/06 12:28:15;;;;;;;7.25;1.38;;;9.70;99.90;;;;;;5046603;28;19980;-63
2023/01/06 12:31:08;;;;;;;12.63;1.73;;;9.70;99.90;;;;;;5047556;28;20156;-63
2023/01/06 12:33:48;;;;;;;9.88;1.70;;;9.70;99.90;;;;;;5036362;28;20049;-63
2023/01/06 12:36:42;;;;;;;9.85;1.65;;;9.70;99.90;;;;;;5042224;28;20442;-63
2023/01/06 12:39:12;;;;;;;13.27;1.42;;;9.70;99.90;;;;;;5043339;28;20897;-63
2023/01/06 12:41:54;;;;;;;10.60;0.90;;;9.60;99.90;;;;;;5024730;28;20127;-63
2023/01/06 12:44:56;;;;;;;5.35;0.57;;;9.60;99.90;;;;;;5028378;28;20495;-63
2023/01/06 12:47:34;;;;;;;6.28;0.98;;;9.50;99.90;;;;;;5039937;28;20044;-63
2023/01/06 12:50:19;;;;;;;0.95;0.40;;;9.50;99.90;;;;;;5009364;28;20531;-63
2023/01/06 12:52:59;;;;;;;7.47;1.17;;;9.60;99.90;;;;;;5046600;28;20116;-62
2023/01/06 12:56:09;;;;;;;16.13;1.92;;;9.60;99.90;;;;;;5042041;28;20080;-62
2023/01/06 12:58:35;;;;;;;;;;;9.60;99.90;;;;;;5008747;28;20049;-62
2023/01/06 13:01:16;;;;;;;14.55;1.20;;;9.60;99.90;;;;;;5044246;28;20488;-63
2023/01/06 13:03:58;;;;;;;9.23;1.42;;;9.60;99.90;;;;;;5026657;28;20044;-62
2023/01/06 13:06:55;;;;;;;18.95;2.17;;;9.60;99.90;;;;;;5046822;28;20052;-63
2023/01/06 13:09:34;;;;;;;2.17;0.28;;;9.50;99.90;;;;;;5038738;28;20059;-63
2023/01/06 13:12:18;;;;;;;8.63;1.33;;;9.50;99.90;;;;;;5046252;28;20080;-62